createdAt,value
2022-11-19T00:02:30.528Z,8.80
2022-11-19T00:04:58.748Z,8.80
2022-11-19T00:07:26.986Z,8.70
2022-11-19T00:09:57.280Z,8.60
2022-11-19T00:12:45.334Z,8.70
2022-11-19T00:15:13.499Z,8.70
2022-11-19T00:17:41.650Z,8.80
2022-11-19T00:20:11.450Z,8.90
2022-11-19T00:22:41.633Z,8.90
2022-11-19T00:25:12.591Z,9.00
2022-11-19T00:27:40.749Z,9.00
2022-11-19T00:30:19.832Z,9.00
2022-11-19T00:32:54.235Z,8.60
2022-11-19T00:35:22.371Z,8.70
2022-11-19T00:37:50.642Z,8.70
2022-11-19T00:40:20.359Z,8.70
2022-11-19T00:43:08.889Z,8.90
2022-11-19T00:45:37.012Z,8.80
2022-11-19T00:48:05.612Z,8.90
2022-11-19T00:50:33.815Z,8.80
2022-11-19T00:53:02.049Z,8.50
2022-11-19T00:58:00.157Z,8.40
2022-11-19T01:00:28.330Z,8.40
2022-11-19T01:02:56.600Z,8.30
2022-11-19T01:05:24.877Z,8.30
2022-11-19T01:07:54.244Z,8.30
2022-11-19T01:10:22.536Z,8.30
2022-11-19T01:13:09.584Z,8.20
2022-11-19T01:15:37.842Z,8.10
2022-11-19T01:18:06.117Z,8.20
2022-11-19T01:20:34.401Z,8.00
2022-11-19T01:23:05.636Z,7.90
2022-11-19T01:25:33.931Z,7.80
2022-11-19T01:28:06.500Z,7.90
2022-11-19T01:30:40.462Z,7.80
2022-11-19T01:33:11.256Z,7.90
2022-11-19T01:35:39.775Z,7.90
2022-11-19T01:40:44.261Z,7.90
2022-11-19T01:43:15.002Z,7.90
2022-11-19T01:45:45.338Z,7.90
2022-11-19T01:48:18.906Z,7.90
2022-11-19T01:50:52.323Z,7.80
2022-11-19T01:53:22.271Z,7.80
2022-11-19T01:55:52.131Z,7.80
2022-11-19T01:58:25.498Z,7.80
2022-11-19T02:00:53.870Z,7.90
2022-11-19T02:03:22.126Z,7.90
2022-11-19T02:05:50.818Z,7.70
2022-11-19T02:08:41.692Z,7.70
2022-11-19T02:11:39.469Z,7.80
2022-11-19T02:14:26.098Z,7.80
2022-11-19T02:17:03.166Z,7.80
2022-11-19T02:19:53.302Z,7.60
2022-11-19T02:22:38.366Z,7.60
2022-11-19T02:25:18.392Z,7.70
2022-11-19T02:28:14.823Z,7.60
2022-11-19T02:30:47.224Z,7.50
2022-11-19T02:33:23.723Z,7.40
2022-11-19T02:35:59.987Z,7.30
2022-11-19T02:38:33.122Z,7.30
2022-11-19T02:41:29.071Z,7.40
2022-11-19T02:44:17.248Z,7.30
2022-11-19T02:46:50.894Z,7.20
2022-11-19T02:49:25.299Z,7.40
2022-11-19T02:51:54.683Z,7.40
2022-11-19T02:54:22.856Z,7.20
2022-11-19T02:56:53.230Z,7.20
2022-11-19T02:59:44.203Z,7.20
2022-11-19T03:02:33.903Z,7.30
2022-11-19T03:05:03.287Z,7.20
2022-11-19T03:07:31.645Z,7.20
2022-11-19T03:10:03.557Z,7.20
2022-11-19T03:12:39.840Z,7.20
2022-11-19T03:15:39.626Z,7.20
2022-11-19T03:18:14.711Z,7.20
2022-11-19T03:20:48.256Z,7.10
2022-11-19T03:23:23.025Z,7.00
2022-11-19T03:25:56.257Z,7.00
2022-11-19T03:28:28.693Z,7.00
2022-11-19T03:31:00.373Z,6.80
2022-11-19T03:33:33.817Z,6.70
2022-11-19T03:36:06.893Z,6.40
2022-11-19T03:38:39.754Z,6.40
2022-11-19T03:41:08.903Z,6.40
2022-11-19T03:43:41.520Z,6.40
2022-11-19T03:46:16.180Z,6.50
2022-11-19T03:48:52.617Z,5.90
2022-11-19T03:51:27.708Z,6.40
2022-11-19T03:53:56.129Z,6.20
2022-11-19T03:56:27.534Z,6.10
2022-11-19T03:58:55.953Z,6.10
2022-11-19T04:01:24.325Z,6.00
2022-11-19T04:04:11.282Z,6.10
2022-11-19T04:06:39.469Z,6.10
2022-11-19T04:09:07.677Z,6.20
2022-11-19T04:11:35.968Z,6.20
2022-11-19T04:14:04.262Z,6.20
2022-11-19T04:16:32.476Z,6.10
2022-11-19T04:19:04.602Z,6.20
2022-11-19T04:21:32.915Z,6.20
2022-11-19T04:24:01.193Z,6.10
2022-11-19T04:26:29.597Z,6.10
2022-11-19T04:28:57.734Z,6.10
2022-11-19T04:31:29.059Z,5.90
2022-11-19T04:33:57.338Z,5.90
2022-11-19T04:36:26.966Z,5.80
2022-11-19T04:38:55.133Z,5.80
2022-11-19T04:41:23.375Z,5.80
2022-11-19T04:43:51.598Z,2.60
2022-11-19T04:46:20.069Z,5.60
2022-11-19T04:48:48.321Z,5.60
2022-11-19T04:51:16.634Z,5.40
2022-11-19T04:53:46.202Z,5.40
2022-11-19T04:56:14.603Z,5.40
2022-11-19T04:58:42.819Z,5.50
2022-11-19T05:01:13.391Z,5.40
2022-11-19T05:03:41.977Z,5.40
2022-11-19T05:08:38.929Z,5.30
2022-11-19T05:11:08.595Z,5.30
2022-11-19T05:18:34.084Z,5.20
2022-11-19T05:25:59.534Z,4.90
2022-11-19T05:28:38.478Z,4.90
2022-11-19T05:31:08.124Z,4.90
2022-11-19T05:33:36.515Z,4.80
2022-11-19T05:36:05.550Z,4.80
2022-11-19T05:38:34.044Z,4.90
2022-11-19T05:41:02.407Z,4.90
2022-11-19T05:43:32.324Z,5.00
2022-11-19T05:46:01.892Z,4.90
2022-11-19T05:51:00.845Z,5.00
2022-11-19T05:53:30.159Z,4.70
2022-11-19T06:03:34.820Z,4.70
2022-11-19T06:08:31.739Z,4.50
2022-11-19T06:11:02.694Z,4.50
2022-11-19T06:13:34.774Z,4.40
2022-11-19T06:18:31.568Z,4.40
2022-11-19T06:23:28.256Z,4.60
2022-11-19T06:25:57.036Z,4.60
2022-11-19T06:28:25.291Z,4.60
2022-11-19T06:30:54.949Z,4.60
2022-11-19T06:33:23.054Z,4.50
2022-11-19T06:40:48.877Z,4.00
2022-11-19T06:45:46.055Z,3.90
2022-11-19T06:50:46.288Z,4.00
2022-11-19T06:53:15.365Z,4.00
2022-11-19T06:55:43.575Z,4.00
2022-11-19T06:58:15.696Z,3.90
2022-11-19T07:00:44.508Z,3.90
2022-11-19T07:03:12.886Z,3.80
2022-11-19T07:05:42.681Z,3.80
2022-11-19T07:08:11.350Z,3.70
2022-11-19T07:15:38.065Z,3.70
2022-11-19T07:20:35.098Z,3.70
2022-11-19T07:30:38.742Z,3.70
2022-11-19T07:33:07.094Z,3.80
2022-11-19T07:35:35.263Z,3.90
2022-11-19T07:38:04.716Z,4.00
2022-11-19T07:40:33.483Z,4.00
2022-11-19T07:45:29.159Z,3.90
2022-11-19T07:47:57.324Z,4.00
2022-11-19T07:50:25.538Z,4.00
2022-11-19T07:52:53.916Z,4.00
2022-11-19T07:55:25.977Z,4.00
2022-11-19T07:57:54.767Z,4.10
2022-11-19T08:00:25.722Z,4.10
2022-11-19T08:05:22.374Z,4.10
2022-11-19T08:07:50.591Z,4.00
2022-11-19T08:10:18.833Z,4.00
2022-11-19T08:13:03.238Z,4.00
2022-11-19T08:15:32.110Z,3.80
2022-11-19T08:18:16.170Z,3.80
2022-11-19T08:20:46.090Z,3.70
2022-11-19T08:23:16.754Z,3.60
2022-11-19T08:25:45.761Z,3.50
2022-11-19T08:28:15.337Z,3.50
2022-11-19T08:30:45.474Z,3.40
2022-11-19T08:33:13.990Z,3.30
2022-11-19T08:38:11.473Z,3.20
2022-11-19T08:40:39.757Z,3.10
2022-11-19T08:43:07.036Z,3.10
2022-11-19T08:45:38.748Z,3.20
2022-11-19T08:48:10.357Z,3.30
2022-11-19T08:50:38.689Z,3.20
2022-11-19T08:53:07.293Z,3.20
2022-11-19T08:55:35.563Z,3.20
2022-11-19T08:58:05.118Z,3.20
2022-11-19T09:00:35.789Z,3.30
2022-11-19T09:03:05.517Z,3.30
2022-11-19T09:05:33.784Z,3.20
2022-11-19T09:08:01.939Z,3.20
2022-11-19T09:10:30.124Z,3.10
2022-11-19T09:12:58.566Z,3.10
2022-11-19T09:15:26.776Z,3.20
2022-11-19T09:17:55.076Z,3.20
2022-11-19T09:20:24.515Z,3.30
2022-11-19T09:22:52.744Z,3.30
2022-11-19T09:25:20.981Z,3.30
2022-11-19T09:27:51.712Z,3.40
2022-11-19T09:30:19.998Z,3.40
2022-11-19T09:35:16.738Z,3.40
2022-11-19T09:37:46.357Z,3.40
2022-11-19T09:40:19.794Z,3.40
2022-11-19T09:43:03.134Z,3.40
2022-11-19T09:45:42.671Z,3.50
2022-11-19T09:48:23.597Z,3.70
2022-11-19T09:50:58.472Z,3.70
2022-11-19T09:53:35.132Z,3.70
2022-11-19T09:58:35.969Z,3.70
2022-11-19T10:01:04.975Z,3.70
2022-11-19T10:03:34.236Z,3.60
2022-11-19T10:06:17.204Z,3.80
2022-11-19T10:09:06.179Z,3.90
2022-11-19T10:11:45.427Z,3.90
2022-11-19T10:14:28.659Z,3.90
2022-11-19T10:17:05.800Z,4.00
2022-11-19T10:19:49.114Z,4.00
2022-11-19T10:22:22.893Z,3.90
2022-11-19T10:24:58.589Z,3.80
2022-11-19T10:27:32.427Z,3.90
2022-11-19T10:30:05.313Z,3.80
2022-11-19T10:32:39.927Z,3.90
2022-11-19T10:35:17.187Z,4.60
2022-11-19T10:37:56.822Z,3.80
2022-11-19T10:40:35.807Z,3.90
2022-11-19T10:43:20.701Z,3.80
2022-11-19T10:45:51.506Z,3.70
2022-11-19T10:48:23.753Z,3.80
2022-11-19T10:50:52.353Z,3.80
2022-11-19T10:53:26.232Z,3.80
2022-11-19T10:56:00.111Z,3.80
2022-11-19T10:58:33.298Z,3.90
2022-11-19T11:01:04.127Z,3.70
2022-11-19T11:03:37.871Z,3.70
2022-11-19T11:06:09.906Z,3.70
2022-11-19T11:08:49.869Z,3.70
2022-11-19T11:11:46.396Z,3.80
2022-11-19T11:14:36.332Z,3.80
2022-11-19T11:17:18.222Z,3.80
2022-11-19T11:19:46.466Z,3.80
2022-11-19T11:22:21.098Z,3.90
2022-11-19T11:24:49.541Z,3.90
2022-11-19T11:27:25.481Z,4.00
2022-11-19T11:30:07.614Z,3.90
2022-11-19T11:32:35.805Z,3.90
2022-11-19T11:35:08.191Z,4.00
2022-11-19T11:37:37.672Z,3.90
2022-11-19T11:40:19.447Z,3.80
2022-11-19T11:45:24.120Z,3.90
2022-11-19T11:47:53.059Z,3.90
2022-11-19T11:50:25.600Z,3.70
2022-11-19T11:52:56.077Z,3.70
2022-11-19T11:55:33.069Z,5.40
2022-11-19T11:58:05.178Z,3.80
2022-11-19T12:00:36.375Z,3.80
2022-11-19T12:03:07.258Z,4.00
2022-11-19T12:05:45.863Z,3.90
2022-11-19T12:08:30.761Z,3.90
2022-11-19T12:11:04.630Z,3.90
2022-11-19T12:13:58.061Z,3.90
2022-11-19T12:16:45.973Z,3.80
2022-11-19T12:19:28.564Z,3.80
2022-11-19T12:22:06.682Z,3.80
2022-11-19T12:24:51.911Z,3.90
2022-11-19T12:27:31.221Z,3.80
2022-11-19T12:30:07.248Z,3.80
2022-11-19T12:33:09.573Z,3.80
2022-11-19T12:35:46.617Z,3.80
2022-11-19T12:38:35.356Z,3.80
2022-11-19T12:41:27.958Z,3.70
2022-11-19T12:43:59.754Z,3.70
2022-11-19T12:46:41.807Z,3.70
2022-11-19T12:49:40.462Z,3.80
2022-11-19T12:52:26.322Z,3.80
2022-11-19T12:55:05.502Z,3.80
2022-11-19T12:57:44.410Z,3.70
2022-11-19T13:00:16.372Z,3.70
2022-11-19T13:02:56.653Z,3.60
2022-11-19T13:05:36.459Z,3.80
2022-11-19T13:08:11.428Z,3.90
2022-11-19T13:10:45.881Z,3.90
2022-11-19T13:13:19.036Z,3.90
2022-11-19T13:15:52.069Z,3.90
2022-11-19T13:18:22.932Z,3.80
2022-11-19T13:20:57.048Z,3.70
2022-11-19T13:23:31.320Z,3.70
2022-11-19T13:26:03.409Z,3.70
2022-11-19T13:28:39.106Z,3.70
2022-11-19T13:31:12.489Z,3.70
2022-11-19T13:33:49.437Z,3.60
2022-11-19T13:36:26.374Z,3.60
2022-11-19T13:38:58.079Z,3.50
2022-11-19T13:41:30.741Z,3.50
2022-11-19T13:44:17.761Z,3.50
2022-11-19T13:46:54.900Z,3.60
2022-11-19T13:49:28.261Z,3.60
2022-11-19T13:52:01.990Z,3.70
2022-11-19T13:54:34.865Z,3.70
2022-11-19T13:57:06.874Z,3.70
2022-11-19T13:59:39.380Z,3.60
2022-11-19T14:02:43.210Z,3.50
2022-11-19T14:05:44.042Z,3.50
2022-11-19T14:08:39.519Z,3.50
2022-11-19T14:11:21.538Z,3.60
2022-11-19T14:14:04.333Z,3.60
2022-11-19T14:16:56.423Z,3.60
2022-11-19T14:19:42.320Z,3.60
2022-11-19T14:22:52.447Z,3.60
2022-11-19T14:26:01.631Z,3.60
2022-11-19T14:28:44.571Z,3.50
2022-11-19T14:31:13.228Z,3.50
2022-11-19T14:34:04.238Z,3.50
2022-11-19T14:36:46.002Z,3.50
2022-11-19T14:39:23.820Z,3.50
2022-11-19T14:42:14.545Z,3.50
2022-11-19T14:44:43.163Z,3.50
2022-11-19T14:47:34.430Z,3.50
2022-11-19T14:50:05.913Z,3.50
2022-11-19T14:52:39.615Z,3.40
2022-11-19T14:55:22.403Z,3.40
2022-11-19T14:57:57.808Z,3.40
2022-11-19T15:00:33.066Z,3.50
2022-11-19T15:03:03.813Z,3.50
2022-11-19T15:05:34.345Z,3.50
2022-11-19T15:08:42.551Z,3.50
2022-11-19T15:11:13.000Z,3.40
2022-11-19T15:13:42.715Z,3.40
2022-11-19T15:16:14.334Z,3.40
2022-11-19T15:19:15.222Z,3.50
2022-11-19T15:22:10.900Z,3.40
2022-11-19T15:24:57.193Z,3.30
2022-11-19T15:27:42.931Z,3.40
2022-11-19T15:30:18.549Z,3.30
2022-11-19T15:32:59.084Z,3.30
2022-11-19T15:36:18.234Z,3.30
2022-11-19T15:38:53.893Z,3.30
2022-11-19T15:41:24.697Z,3.20
2022-11-19T15:43:58.043Z,3.20
2022-11-19T15:46:35.075Z,3.10
2022-11-19T15:49:11.389Z,3.10
2022-11-19T15:51:57.975Z,3.20
2022-11-19T15:54:30.555Z,3.40
2022-11-19T15:57:01.386Z,3.50
2022-11-19T15:59:34.138Z,3.50
2022-11-19T16:02:04.463Z,3.40
2022-11-19T16:04:39.192Z,3.50
2022-11-19T16:07:10.341Z,3.40
2022-11-19T16:09:39.786Z,3.50
2022-11-19T16:12:38.280Z,3.50
2022-11-19T16:15:43.683Z,3.50
2022-11-19T16:18:18.683Z,3.50
2022-11-19T16:20:50.890Z,3.50
2022-11-19T16:23:22.358Z,3.50
2022-11-19T16:25:51.090Z,3.50
2022-11-19T16:28:24.062Z,3.50
2022-11-19T16:30:55.564Z,3.50
2022-11-19T16:33:27.091Z,3.60
2022-11-19T16:36:12.293Z,3.70
2022-11-19T16:38:43.854Z,3.80
2022-11-19T16:41:30.749Z,3.70
2022-11-19T16:43:59.955Z,3.70
2022-11-19T16:46:32.908Z,3.70
2022-11-19T16:49:02.750Z,3.70
2022-11-19T16:51:40.151Z,3.50
2022-11-19T16:54:10.665Z,3.40
2022-11-19T16:56:45.225Z,3.50
2022-11-19T16:59:23.841Z,3.50
2022-11-19T17:01:57.170Z,3.50
2022-11-19T17:04:28.786Z,3.50
2022-11-19T17:06:57.952Z,3.40
2022-11-19T17:09:33.297Z,3.50
2022-11-19T17:12:20.290Z,3.50
2022-11-19T17:14:58.523Z,3.50
2022-11-19T17:17:40.484Z,3.40
2022-11-19T17:20:51.535Z,3.50
2022-11-19T17:23:22.001Z,3.50
2022-11-19T17:25:53.295Z,3.50
2022-11-19T17:28:30.139Z,3.50
2022-11-19T17:30:59.042Z,3.50
2022-11-19T17:33:32.687Z,3.50
2022-11-19T17:36:03.843Z,3.60
2022-11-19T17:38:33.419Z,3.60
2022-11-19T17:41:03.296Z,3.40
2022-11-19T17:43:52.518Z,3.50
2022-11-19T17:46:21.173Z,3.50
2022-11-19T17:48:51.346Z,3.60
2022-11-19T17:51:21.587Z,3.60
2022-11-19T17:53:51.413Z,3.60
2022-11-19T17:56:21.046Z,3.60
2022-11-19T17:58:51.740Z,3.70
2022-11-19T18:01:20.612Z,3.50
2022-11-19T18:03:52.581Z,3.50
2022-11-19T18:06:21.013Z,3.70
2022-11-19T18:08:49.361Z,3.70
2022-11-19T18:11:20.009Z,3.70
2022-11-19T18:13:50.649Z,3.70
2022-11-19T18:16:21.226Z,3.70
2022-11-19T18:18:54.047Z,3.80
2022-11-19T18:21:24.148Z,3.80
2022-11-19T18:23:56.505Z,3.80
2022-11-19T18:26:26.527Z,3.80
2022-11-19T18:28:57.851Z,3.80
2022-11-19T18:31:28.574Z,3.70
2022-11-19T18:33:58.579Z,3.70
2022-11-19T18:36:27.585Z,3.70
2022-11-19T18:38:56.766Z,3.60
2022-11-19T18:41:26.412Z,3.60
2022-11-19T18:44:12.124Z,3.50
2022-11-19T18:46:40.463Z,3.50
2022-11-19T18:49:10.172Z,3.60
2022-11-19T18:51:38.409Z,3.50
2022-11-19T18:54:06.771Z,3.40
2022-11-19T18:56:35.028Z,3.50
2022-11-19T18:59:05.507Z,3.50
2022-11-19T19:01:34.588Z,3.40
2022-11-19T19:04:03.018Z,3.40
2022-11-19T19:06:32.848Z,3.50
2022-11-19T19:09:01.055Z,3.50
2022-11-19T19:11:46.821Z,3.50
2022-11-19T19:14:15.229Z,3.50
2022-11-19T19:16:43.442Z,3.50
2022-11-19T19:19:14.158Z,3.60
2022-11-19T19:21:43.917Z,3.50
2022-11-19T19:24:12.291Z,3.50
2022-11-19T19:26:40.880Z,3.50
2022-11-19T19:29:09.585Z,3.50
2022-11-19T19:31:38.326Z,3.50
2022-11-19T19:34:07.510Z,3.50
2022-11-19T19:36:35.998Z,3.40
2022-11-19T19:39:06.073Z,3.50
2022-11-19T19:41:34.652Z,3.50
2022-11-19T19:44:05.171Z,3.40
2022-11-19T19:46:34.131Z,3.50
2022-11-19T19:49:02.487Z,3.40
2022-11-19T19:51:32.745Z,3.50
2022-11-19T19:54:01.715Z,3.50
2022-11-19T19:56:34.085Z,3.80
2022-11-19T19:59:03.111Z,3.80
2022-11-19T20:01:33.125Z,3.90
2022-11-19T20:04:03.104Z,3.90
2022-11-19T20:06:34.033Z,3.80
2022-11-19T20:09:08.131Z,3.80
2022-11-19T20:11:39.247Z,3.80
2022-11-19T20:14:07.545Z,3.80
2022-11-19T20:16:36.192Z,3.80
2022-11-19T20:19:07.646Z,3.70
2022-11-19T20:21:36.614Z,3.60
2022-11-19T20:24:11.436Z,3.60
2022-11-19T20:26:43.185Z,3.60
2022-11-19T20:29:14.290Z,3.60
2022-11-19T20:31:46.192Z,3.50
2022-11-19T20:34:14.513Z,3.60
2022-11-19T20:36:45.274Z,3.50
2022-11-19T20:39:13.983Z,3.60
2022-11-19T20:42:01.566Z,3.60
2022-11-19T20:44:30.427Z,3.60
2022-11-19T20:47:00.361Z,3.50
2022-11-19T20:49:33.027Z,3.50
2022-11-19T20:52:02.100Z,3.50
2022-11-19T20:54:30.922Z,3.40
2022-11-19T20:57:02.930Z,3.40
2022-11-19T20:59:31.438Z,3.40
2022-11-19T21:01:59.825Z,3.40
2022-11-19T21:04:29.765Z,2.90
2022-11-19T21:06:58.184Z,3.40
2022-11-19T21:09:28.869Z,3.40
2022-11-19T21:11:57.652Z,3.50
2022-11-19T21:14:28.375Z,3.60
2022-11-19T21:16:57.525Z,3.50
2022-11-19T21:19:29.066Z,3.70
2022-11-19T21:21:57.685Z,3.70
2022-11-19T21:24:26.078Z,3.70
2022-11-19T21:26:56.841Z,3.70
2022-11-19T21:29:27.603Z,3.70
2022-11-19T21:31:56.998Z,3.60
2022-11-19T21:34:25.915Z,3.50
2022-11-19T21:36:55.462Z,3.50
2022-11-19T21:39:26.685Z,3.60
2022-11-19T21:41:57.338Z,3.50
2022-11-19T21:44:27.556Z,3.60
2022-11-19T21:46:58.387Z,3.60
2022-11-19T21:49:30.278Z,3.50
2022-11-19T21:51:58.847Z,3.40
2022-11-19T21:54:27.196Z,3.40
2022-11-19T21:56:55.367Z,3.30
2022-11-19T21:59:24.535Z,3.40
2022-11-19T22:04:30.124Z,3.50
2022-11-19T22:06:59.168Z,3.40
2022-11-19T22:12:00.474Z,3.40
2022-11-19T22:17:02.489Z,3.30
2022-11-19T22:19:35.008Z,3.30
2022-11-19T22:22:06.786Z,3.30
2022-11-19T22:24:35.310Z,3.30
2022-11-19T22:27:05.459Z,3.20
2022-11-19T22:29:34.690Z,3.40
2022-11-19T22:32:05.549Z,3.30
2022-11-19T22:34:34.336Z,3.40
2022-11-19T22:37:02.656Z,3.40
2022-11-19T22:39:31.464Z,3.30
2022-11-19T22:42:00.264Z,3.30
2022-11-19T22:44:30.992Z,3.20
2022-11-19T22:47:00.917Z,3.20
2022-11-19T22:49:30.755Z,3.30
2022-11-19T22:54:30.589Z,3.30
2022-11-19T22:56:58.942Z,3.30
2022-11-19T22:59:27.293Z,3.30
2022-11-19T23:01:55.508Z,3.30
2022-11-19T23:04:26.410Z,3.30
2022-11-19T23:06:58.631Z,3.40
2022-11-19T23:09:30.628Z,3.20
2022-11-19T23:12:16.457Z,3.30
2022-11-19T23:14:44.848Z,3.40
2022-11-19T23:17:13.219Z,3.40
2022-11-19T23:19:41.480Z,3.50
2022-11-19T23:22:11.269Z,3.50
2022-11-19T23:24:39.718Z,3.50
2022-11-19T23:27:10.732Z,3.60
2022-11-19T23:29:39.197Z,3.50
2022-11-19T23:32:07.955Z,3.50
2022-11-19T23:34:36.190Z,3.40
2022-11-19T23:37:04.612Z,3.20
2022-11-19T23:39:34.444Z,3.30
2022-11-19T23:42:02.795Z,3.40
2022-11-19T23:44:31.365Z,3.40
2022-11-19T23:47:04.703Z,3.60
2022-11-19T23:49:33.254Z,3.60
2022-11-19T23:52:02.181Z,3.60
2022-11-19T23:54:30.964Z,3.70
2022-11-19T23:57:01.129Z,3.70
2022-11-19T23:59:29.816Z,3.70
